createdAt,value
2018-07-25T00:02:14.178Z,8.4
2018-07-25T00:12:13.765Z,7.3
2018-07-25T00:22:13.343Z,5.9
2018-07-25T00:32:12.880Z,7.1
2018-07-25T00:42:12.399Z,6.1
2018-07-25T00:52:12.053Z,7.3
2018-07-25T01:02:11.624Z,9
2018-07-25T01:12:11.162Z,6.9
2018-07-25T01:22:13.419Z,8.2
2018-07-25T01:32:14.997Z,7.4
2018-07-25T01:42:22.502Z,7
2018-07-25T01:52:29.251Z,7.6
2018-07-25T02:02:29.225Z,7.2
2018-07-25T02:12:34.501Z,6.8
2018-07-25T02:22:43.103Z,7.2
2018-07-25T02:32:44.415Z,7.3
2018-07-25T02:42:44.068Z,6.2
2018-07-25T02:52:49.875Z,7.4
2018-07-25T03:02:58.568Z,7.6
2018-07-25T03:13:03.130Z,7.2
2018-07-25T03:23:03.770Z,8.5
2018-07-25T03:33:08.944Z,7.5
2018-07-25T03:43:15.537Z,6
2018-07-25T03:53:17.640Z,7.2
2018-07-25T04:03:21.238Z,8.9
2018-07-25T04:13:24.068Z,7.3
2018-07-25T04:23:33.052Z,7.2
2018-07-25T04:33:33.244Z,7.9
2018-07-25T04:43:33.886Z,7.7
2018-07-25T04:53:36.588Z,6.5
2018-07-25T05:03:37.440Z,6.1
2018-07-25T05:13:46.254Z,6.3
2018-07-25T05:23:58.917Z,6.7
2018-07-25T05:34:06.147Z,4.8
2018-07-25T05:44:13.363Z,6
2018-07-25T05:54:28.384Z,4.9
2018-07-25T06:04:36.485Z,5.3
2018-07-25T06:14:51.918Z,4.6
2018-07-25T06:25:01.370Z,4.3
2018-07-25T06:35:22.625Z,4.7
2018-07-25T06:45:34.173Z,4.8
2018-07-25T06:55:35.620Z,3.9
2018-07-25T07:05:53.122Z,4.1
2018-07-25T07:15:55.049Z,3.5
2018-07-25T07:26:06.041Z,4.3
2018-07-25T07:36:28.040Z,4.4
2018-07-25T07:46:43.216Z,4.1
2018-07-25T07:56:55.330Z,3.8
2018-07-25T08:07:05.045Z,5.2
2018-07-25T08:17:12.075Z,3.9
2018-07-25T08:27:24.754Z,4.4
2018-07-25T08:37:40.350Z,4.1
2018-07-25T08:47:50.262Z,3.5
2018-07-25T08:57:59.660Z,4.3
2018-07-25T09:08:13.146Z,4.5
2018-07-25T09:18:24.023Z,4.6
2018-07-25T09:28:44.907Z,3.7
2018-07-25T09:38:59.127Z,4.8
2018-07-25T09:49:12.477Z,5.8
2018-07-25T09:59:27.148Z,4.6
2018-07-25T10:09:45.454Z,3.6
2018-07-25T10:20:06.859Z,3.1
2018-07-25T10:30:28.715Z,3.6
2018-07-25T10:40:41.872Z,4.8
2018-07-25T10:50:51.077Z,3.1
2018-07-25T11:01:03.645Z,3.4
2018-07-25T11:11:15.616Z,3.3
2018-07-25T11:21:29.961Z,4.4
2018-07-25T11:31:37.507Z,4.7
2018-07-25T11:41:49.852Z,4.5
2018-07-25T11:51:54.170Z,4.4
2018-07-25T12:01:55.056Z,7.7
2018-07-25T12:11:59.205Z,6.2
2018-07-25T12:22:02.958Z,4.1
2018-07-25T12:32:06.125Z,4.2
2018-07-25T12:42:17.359Z,4.2
2018-07-25T12:52:32.886Z,3.6
2018-07-25T13:02:49.947Z,4.2
2018-07-25T13:13:10.817Z,6.3
2018-07-25T13:23:22.914Z,4.8
2018-07-25T13:33:37.864Z,4.3
2018-07-25T13:43:48.500Z,3.7
2018-07-25T13:54:06.629Z,3.1
2018-07-25T14:04:16.466Z,4.8
2018-07-25T14:14:25.391Z,3.8
2018-07-25T14:24:39.676Z,4.5
2018-07-25T14:35:03.817Z,4.2
2018-07-25T14:45:09.793Z,3.6
2018-07-25T14:55:16.833Z,3.1
2018-07-25T15:05:27.621Z,3.8
2018-07-25T15:15:32.066Z,3.5
2018-07-25T15:25:43.938Z,4.3
2018-07-25T15:35:48.686Z,4.3
2018-07-25T15:45:53.958Z,4.5
2018-07-25T15:56:02.278Z,4.3
2018-07-25T16:06:12.808Z,3.8
2018-07-25T16:16:19.076Z,3.5
2018-07-25T16:26:22.697Z,4.2
2018-07-25T16:36:27.283Z,5.2
2018-07-25T16:46:37.621Z,3.9
2018-07-25T16:56:41.730Z,3.7
2018-07-25T17:06:46.832Z,4.1
2018-07-25T17:16:51.945Z,4
2018-07-25T17:26:58.118Z,4.1
2018-07-25T17:37:03.915Z,5.1
2018-07-25T17:47:09.938Z,3.9
2018-07-25T17:57:16.987Z,6.7
2018-07-25T18:07:22.329Z,3.9
2018-07-25T18:17:27.596Z,3.7
2018-07-25T18:27:35.457Z,8.1
2018-07-25T18:37:40.673Z,5.5
2018-07-25T18:47:47.231Z,4.4
2018-07-25T18:57:50.425Z,3.9
2018-07-25T19:07:50.933Z,8.4
2018-07-25T19:17:50.550Z,4.6
2018-07-25T19:27:53.199Z,5.7
2018-07-25T19:37:59.385Z,5
2018-07-25T19:48:07.312Z,9.3
2018-07-25T19:58:08.182Z,6.6
2018-07-25T20:08:07.782Z,5.9
2018-07-25T20:18:11.017Z,5.9
2018-07-25T20:28:14.375Z,4.6
2018-07-25T20:38:21.645Z,5.3
2018-07-25T20:48:25.423Z,5.2
2018-07-25T20:58:35.583Z,4.5
2018-07-25T21:08:42.559Z,4.5
2018-07-25T21:18:52.008Z,4.7
2018-07-25T21:29:15.540Z,4.3
2018-07-25T21:39:22.977Z,3.7
2018-07-25T21:49:50.549Z,3.1
2018-07-25T22:00:07.240Z,3
2018-07-25T22:10:18.389Z,3.3
2018-07-25T22:20:41.886Z,3.9
2018-07-25T22:30:56.322Z,3.4
2018-07-25T22:41:16.042Z,2.5
2018-07-25T22:51:31.655Z,3
2018-07-25T23:01:49.988Z,4.2
2018-07-25T23:12:03.860Z,3.7
2018-07-25T23:22:16.486Z,3.3
2018-07-25T23:32:20.474Z,5.4
2018-07-25T23:42:32.958Z,3.2
2018-07-25T23:52:57.034Z,3
